Time;durP1;ratioP1;P1;durP2;ratioP2;P2;SDS_P1;SDS_P2;PMS_P1;PMS_P2;Temp;Humidity;BMP_temperature;BMP_pressure;BME280_temperature;BME280_humidity;BME280_pressure;Samples;Min_cycle;Max_cycle;Signal;HPM_P1;HPM_P2
2022/08/22 00:02:27;;;;;;;19.93;10.47;;;;;;;23.31;68.27;99771.66;124746;1099;102584;-78
2022/08/22 00:05:06;;;;;;;21.45;10.72;;;;;;;23.32;68.20;99770.72;124681;1099;104265;-77
2022/08/22 00:07:53;;;;;;;26.63;10.47;;;;;;;23.32;68.46;99765.37;124764;1099;104200;-77
2022/08/22 00:10:30;;;;;;;21.30;10.67;;;;;;;23.30;68.50;99772.58;124704;1099;104271;-77
2022/08/22 00:13:07;;;;;;;23.43;11.17;;;;;;;23.28;68.60;99771.75;124658;1099;102810;-77
2022/08/22 00:15:44;;;;;;;19.40;10.73;;;;;;;23.29;68.72;99767.27;124758;1099;104168;-77
2022/08/22 00:18:22;;;;;;;20.33;11.07;;;;;;;23.26;68.47;99762.86;124685;1099;102947;-77
2022/08/22 00:21:03;;;;;;;18.50;10.90;;;;;;;23.25;68.67;99755.78;124721;1099;104131;-77
2022/08/22 00:23:44;;;;;;;22.43;11.57;;;;;;;23.25;68.84;99760.23;124193;1099;104252;-78
2022/08/22 00:26:27;;;;;;;18.00;10.20;;;;;;;23.24;69.07;99754.01;124400;1099;104281;-77
2022/08/22 00:29:03;;;;;;;20.52;11.75;;;;;;;23.22;69.23;99758.55;124719;1099;104285;-77
2022/08/22 00:31:40;;;;;;;22.07;10.77;;;;;;;23.22;69.03;99766.56;124728;1098;104235;-77
2022/08/22 00:34:16;;;;;;;18.67;10.73;;;;;;;23.20;69.17;99762.17;124862;1099;104163;-78
2022/08/22 00:36:56;;;;;;;23.00;11.80;;;;;;;23.18;69.14;99758.67;124773;1099;102887;-77
2022/08/22 00:39:33;;;;;;;19.55;11.65;;;;;;;23.17;69.25;99760.48;124336;1099;102970;-77
2022/08/22 00:42:27;;;;;;;25.30;11.85;;;;;;;23.17;69.42;99756.90;124777;1099;102950;-77
2022/08/22 00:45:40;;;;;;;22.93;12.03;;;;;;;23.14;69.79;99756.08;124672;1099;108160;-77
2022/08/22 00:48:34;;;;;;;24.60;12.10;;;;;;;23.08;69.59;99752.67;124265;1099;104338;-77
2022/08/22 00:51:30;;;;;;;20.40;11.30;;;;;;;23.07;69.55;99761.61;124438;1099;104159;-77
2022/08/22 00:54:08;;;;;;;22.73;11.70;;;;;;;23.07;69.96;99756.25;124703;1098;104287;-77
2022/08/22 00:57:02;;;;;;;22.10;11.77;;;;;;;23.05;69.64;99755.43;124745;1099;102476;-77
2022/08/22 01:00:11;;;;;;;20.85;11.40;;;;;;;23.03;70.27;99754.57;124762;1099;102772;-77
2022/08/22 01:03:13;;;;;;;23.00;11.60;;;;;;;23.01;70.00;99756.42;124301;1099;104233;-77
2022/08/22 01:05:57;;;;;;;25.13;12.77;;;;;;;22.92;69.74;99768.23;124687;1099;111650;-77
2022/08/22 01:08:45;;;;;;;20.88;12.07;;;;;;;22.91;69.97;99766.50;124740;1099;104239;-77
2022/08/22 01:11:39;;;;;;;21.30;12.13;;;;;;;22.91;69.88;99762.02;124653;1099;104182;-78
2022/08/22 01:14:25;;;;;;;24.27;13.35;;;;;;;22.88;70.18;99761.23;124730;1099;102781;-77
2022/08/22 01:17:15;;;;;;;26.03;13.73;;;;;;;22.83;70.23;99766.70;124725;1098;104277;-77
2022/08/22 01:20:30;;;;;;;23.60;12.77;;;;;;;22.77;70.32;99769.54;124764;1099;103206;-77
2022/08/22 01:23:47;;;;;;;19.93;12.00;;;;;;;22.75;70.26;99766.00;124792;1099;104249;-77
2022/08/22 01:26:53;;;;;;;24.53;12.67;;;;;;;22.72;70.40;99769.66;124714;1099;119942;-77
2022/08/22 01:29:52;;;;;;;21.87;12.57;;;;;;;22.73;70.59;99767.85;124746;1099;101911;-77
2022/08/22 01:33:02;;;;;;;22.07;12.07;;;;;;;22.72;70.86;99768.76;124499;1099;104232;-78
2022/08/22 01:35:48;;;;;;;20.87;12.30;;;;;;;22.71;70.98;99775.05;124686;1099;104236;-77
2022/08/22 01:38:34;;;;;;;21.47;11.97;;;;;;;22.71;70.79;99778.59;124732;1099;104169;-77
2022/08/22 01:41:43;;;;;;;20.67;11.80;;;;;;;22.72;71.16;99779.45;124709;1099;104319;-77
2022/08/22 01:44:40;;;;;;;20.63;12.07;;;;;;;22.70;71.14;99776.82;124790;1099;102653;-77
2022/08/22 01:47:17;;;;;;;25.40;11.90;;;;;;;22.71;71.59;99783.94;124777;1098;104239;-77
2022/08/22 01:49:54;;;;;;;27.63;12.43;;;;;;;22.71;71.50;99783.94;124724;1099;104226;-77
2022/08/22 01:52:37;;;;;;;22.27;11.27;;;;;;;22.69;71.23;99782.20;124824;1099;104185;-77
2022/08/22 01:55:19;;;;;;;19.50;11.00;;;;;;;22.69;71.80;99782.20;124739;1099;103321;-77
2022/08/22 01:57:59;;;;;;;22.50;11.33;;;;;;;22.67;71.91;99784.05;124692;1099;108028;-77
2022/08/22 02:00:51;;;;;;;22.60;11.07;;;;;;;22.58;72.03;99780.70;124709;1099;104229;-77
2022/08/22 02:03:28;;;;;;;21.20;10.97;;;;;;;22.54;71.52;99772.80;124714;1099;104262;-77
2022/08/22 02:06:08;;;;;;;22.77;11.03;;;;;;;22.49;71.90;99778.26;124304;1099;102736;-77
2022/08/22 02:08:51;;;;;;;22.77;11.30;;;;;;;22.44;71.71;99767.68;124796;1099;104182;-77
2022/08/22 02:11:43;;;;;;;23.77;11.57;;;;;;;22.42;72.42;99768.62;124793;1098;104421;-77
2022/08/22 02:14:36;;;;;;;21.03;11.67;;;;;;;22.42;72.49;99763.28;124824;1099;102804;-77
2022/08/22 02:17:19;;;;;;;23.60;11.43;;;;;;;22.43;72.65;99771.26;124716;1098;104223;-77
2022/08/22 02:19:58;;;;;;;24.83;11.07;;;;;;;22.47;72.55;99771.19;124715;1099;104265;-77
2022/08/22 02:22:39;;;;;;;22.47;11.73;;;;;;;22.47;72.83;99760.48;124216;1102;103077;-77
2022/08/22 02:25:17;;;;;;;20.87;11.13;;;;;;;22.45;72.58;99771.22;124729;1099;102784;-78
2022/08/22 02:27:58;;;;;;;22.83;11.60;;;;;;;22.42;72.41;99766.85;124682;1099;104329;-77
2022/08/22 02:30:45;;;;;;;25.85;12.35;;;;;;;22.39;73.28;99768.70;124708;1099;104161;-77
2022/08/22 02:33:26;;;;;;;23.00;11.80;;;;;;;22.27;73.34;99767.19;124755;1099;102790;-78
2022/08/22 02:36:03;;;;;;;24.47;11.70;;;;;;;22.17;72.82;99776.33;124747;1099;102813;-77
2022/08/22 02:38:42;;;;;;;29.20;11.83;;;;;;;22.08;72.68;99772.96;124690;1099;107879;-77
2022/08/22 02:41:29;;;;;;;23.07;12.07;;;;;;;22.03;72.91;99774.88;124762;1099;102822;-78
2022/08/22 02:44:12;;;;;;;23.00;11.77;;;;;;;21.99;72.92;99778.52;124742;1098;104207;-77
2022/08/22 02:46:51;;;;;;;24.72;11.63;;;;;;;21.92;73.16;99771.55;124741;1098;104169;-77
2022/08/22 02:49:31;;;;;;;24.53;12.07;;;;;;;21.88;73.25;99775.22;124801;1099;104596;-77
2022/08/22 02:52:08;;;;;;;25.07;12.17;;;;;;;21.84;73.98;99776.19;124751;1099;102742;-77
2022/08/22 02:54:48;;;;;;;23.03;13.20;;;;;;;21.83;73.98;99777.09;124775;1099;102181;-78
2022/08/22 02:57:24;;;;;;;23.73;12.73;;;;;;;21.79;73.90;99781.63;124277;1099;102801;-77
2022/08/22 03:00:12;;;;;;;32.37;13.63;;;;;;;21.80;74.50;99785.16;124818;1099;104194;-77
2022/08/22 03:03:02;;;;;;;27.13;12.97;;;;;;;21.82;74.26;99789.57;124845;1099;104689;-77
2022/08/22 03:05:58;;;;;;;22.13;12.97;;;;;;;21.81;74.63;99790.47;124733;1099;104166;-77
2022/08/22 03:08:33;;;;;;;24.03;12.50;;;;;;;21.85;74.46;99788.64;124213;1099;104169;-77
2022/08/22 03:11:15;;;;;;;23.80;12.90;;;;;;;21.86;74.40;99790.38;124775;1099;104268;-77
2022/08/22 03:13:54;;;;;;;23.63;12.63;;;;;;;21.81;74.99;99793.14;124832;1099;102761;-77
2022/08/22 03:16:34;;;;;;;24.83;13.57;;;;;;;21.78;75.24;99811.90;124732;1099;104198;-77
2022/08/22 03:19:12;;;;;;;23.80;12.60;;;;;;;21.73;75.08;99806.66;124773;1099;104326;-77
2022/08/22 03:21:52;;;;;;;23.87;12.53;;;;;;;21.71;75.13;99804.95;124760;1099;103199;-77
2022/08/22 03:24:31;;;;;;;24.10;13.07;;;;;;;21.69;74.89;99806.75;124796;1099;104178;-77
2022/08/22 03:27:09;;;;;;;23.13;12.63;;;;;;;21.70;75.00;99808.52;124803;1099;102775;-77
2022/08/22 03:29:49;;;;;;;27.70;12.77;;;;;;;21.69;74.92;99814.77;124769;1099;118897;-77
2022/08/22 03:32:22;;;;;;;23.70;12.13;;;;;;;21.69;75.09;99825.44;124688;1099;104165;-77
2022/08/22 03:35:02;;;;;;;23.93;12.57;;;;;;;21.66;75.37;99817.50;124711;1098;104303;-77
2022/08/22 03:37:44;;;;;;;21.90;11.73;;;;;;;21.62;75.56;99816.69;124753;1099;102807;-78
2022/08/22 03:40:32;;;;;;;24.20;12.03;;;;;;;21.60;75.67;99820.29;124787;1099;102560;-77
2022/08/22 03:43:24;;;;;;;22.53;12.37;;;;;;;21.59;76.38;99815.89;124735;1099;102029;-77
2022/08/22 03:46:42;;;;;;;27.40;12.77;;;;;;;21.56;75.39;99821.28;124728;1099;102372;-77
2022/08/22 03:49:48;;;;;;;22.67;12.17;;;;;;;21.52;76.51;99824.02;124508;1099;104349;-78
2022/08/22 03:53:05;;;;;;;25.03;13.27;;;;;;;21.49;76.18;99821.41;124741;1099;104159;-77
2022/08/22 03:55:51;;;;;;;22.13;13.05;;;;;;;21.45;76.76;99822.33;124295;1099;102835;-77
2022/08/22 03:59:00;;;;;;;23.63;12.57;;;;;;;21.45;76.78;99824.13;124713;1099;104201;-78
2022/08/22 04:02:04;;;;;;;25.87;12.47;;;;;;;21.46;76.69;99824.10;124176;1102;103086;-78
2022/08/22 04:04:52;;;;;;;;;;;;;;;21.48;75.87;99838.28;124262;1102;104380;-77
2022/08/22 04:07:59;;;;;;;21.90;12.43;;;;;;;21.48;76.53;99835.62;124264;1102;102832;-78
2022/08/22 04:10:59;;;;;;;24.43;12.43;;;;;;;21.49;76.46;99824.08;124286;1102;104175;-78
2022/08/22 04:13:49;;;;;;;22.63;11.77;;;;;;;21.45;76.93;99817.00;124242;1102;104548;-78
2022/08/22 04:17:06;;;;;;;25.57;12.13;;;;;;;21.58;77.48;99830.12;124233;1103;102478;-78
2022/08/22 04:20:08;;;;;;;23.07;12.57;;;;;;;21.64;77.41;99833.55;124172;1102;104354;-78
2022/08/22 04:23:13;;;;;;;25.27;12.37;;;;;;;21.70;76.67;99827.21;124160;1102;104619;-78
2022/08/22 04:25:50;;;;;;;25.93;12.43;;;;;;;21.78;77.61;99835.93;124221;1102;102388;-79
2022/08/22 04:28:27;;;;;;;24.63;12.37;;;;;;;21.83;77.05;99836.73;124210;1102;102971;-78
2022/08/22 04:31:08;;;;;;;23.30;12.97;;;;;;;21.87;77.73;99834.88;124943;1102;102786;-79
2022/08/22 04:33:45;;;;;;;25.70;12.70;;;;;;;21.90;76.96;99837.48;124278;1102;104351;-80
2022/08/22 04:36:23;;;;;;;23.83;12.17;;;;;;;21.96;76.83;99844.48;125324;1099;104156;-78
2022/08/22 04:39:00;;;;;;;27.47;12.23;;;;;;;22.02;76.77;99839.02;125094;1099;104207;-79
2022/08/22 04:41:40;;;;;;;22.20;12.17;;;;;;;22.10;77.51;99837.05;124763;1099;117784;-78
2022/08/22 04:44:19;;;;;;;23.63;12.00;;;;;;;22.15;77.22;99837.81;124700;1098;104533;-77
2022/08/22 04:46:57;;;;;;;24.27;12.37;;;;;;;22.22;77.39;99843.89;124317;1099;104172;-77
2022/08/22 04:49:35;;;;;;;25.90;11.83;;;;;;;22.26;77.23;99843.78;124704;1099;104159;-78
2022/08/22 04:52:15;;;;;;;26.13;11.53;;;;;;;22.32;76.88;99849.95;124794;1099;104197;-77
2022/08/22 04:54:57;;;;;;;26.73;11.77;;;;;;;22.35;76.87;99841.87;124724;1099;104313;-78
2022/08/22 04:57:38;;;;;;;31.47;11.43;;;;;;;22.41;77.13;99845.27;124705;1098;102133;-78
2022/08/22 05:00:12;;;;;;;26.07;11.80;;;;;;;22.47;77.15;99854.05;124692;1099;104169;-77
2022/08/22 05:02:50;;;;;;;28.87;10.77;;;;;;;22.52;76.96;99850.36;124801;1099;104217;-77
2022/08/22 05:05:26;;;;;;;29.30;11.87;;;;;;;22.59;77.19;99851.98;124700;1099;104532;-76
2022/08/22 05:08:00;;;;;;;31.00;10.77;;;;;;;22.65;77.30;99844.72;124734;1098;104160;-76
2022/08/22 05:10:38;;;;;;;26.77;10.73;;;;;;;22.71;77.11;99849.92;124678;1098;104162;-77
2022/08/22 05:13:15;;;;;;;30.07;12.00;;;;;;;22.76;76.90;99848.87;124799;1099;104153;-76
2022/08/22 05:15:52;;;;;;;26.03;10.50;;;;;;;22.83;76.89;99846.05;124728;1099;101837;-77
2022/08/22 05:18:29;;;;;;;28.05;10.35;;;;;;;22.92;76.83;99848.48;124660;1099;103597;-77
2022/08/22 05:21:05;;;;;;;26.87;10.47;;;;;;;23.00;76.96;99841.17;124718;1099;102962;-76
2022/08/22 05:23:43;;;;;;;26.17;10.73;;;;;;;23.08;76.61;99852.57;124680;1099;105219;-77
2022/08/22 05:26:17;;;;;;;29.93;9.40;;;;;;;23.19;76.68;99851.39;124798;1099;104073;-77
2022/08/22 05:28:53;;;;;;;35.33;9.87;;;;;;;23.29;76.76;99855.59;124707;1099;104245;-77
2022/08/22 05:31:37;;;;;;;31.00;10.77;;;;;;;23.37;76.80;99860.73;124374;1099;102411;-79
2022/08/22 05:34:15;;;;;;;29.17;9.70;;;;;;;23.45;76.59;99864.08;126509;1098;103050;-78
2022/08/22 05:36:53;;;;;;;30.47;10.17;;;;;;;23.51;76.35;99853.20;124422;1099;104162;-78
2022/08/22 05:39:26;;;;;;;31.93;9.67;;;;;;;23.57;76.10;99855.70;124873;1099;104824;-78
2022/08/22 05:42:01;;;;;;;32.47;10.00;;;;;;;23.66;76.39;99858.13;125174;1099;104226;-79
2022/08/22 05:44:37;;;;;;;30.50;9.40;;;;;;;23.74;76.28;99854.36;125799;1099;104242;-79
2022/08/22 05:47:23;;;;;;;32.27;9.03;;;;;;;23.79;75.77;99855.09;125024;1102;104323;-79
2022/08/22 05:50:07;;;;;;;32.27;9.47;;;;;;;23.84;75.88;99862.12;125047;1100;104245;-79
2022/08/22 05:53:04;;;;;;;34.00;10.63;;;;;;;23.93;75.40;99862.77;125093;1101;104214;-79
2022/08/22 05:55:51;;;;;;;40.07;8.87;;;;;;;24.00;75.30;99857.17;125033;1102;104259;-78
2022/08/22 05:58:46;;;;;;;29.73;7.60;;;;;;;24.07;75.13;99862.36;125074;1102;104194;-80
2022/08/22 06:01:27;;;;;;;37.07;8.03;;;;;;;24.14;74.56;99850.53;125058;1102;104338;-78
2022/08/22 06:04:10;;;;;;;34.10;8.87;;;;;;;24.20;74.95;99855.71;125091;1102;102923;-79
2022/08/22 06:06:53;;;;;;;28.70;8.63;;;;;;;24.27;74.18;99854.58;125085;1102;104242;-79
2022/08/22 06:09:32;;;;;;;37.13;9.10;;;;;;;24.34;74.04;99853.47;125040;1102;102820;-78
2022/08/22 06:12:21;;;;;;;41.47;8.50;;;;;;;24.38;74.03;99849.74;124825;1102;104213;-81
2022/08/22 06:15:07;;;;;;;32.10;7.93;;;;;;;24.47;73.95;99853.95;125136;1102;102227;-81
2022/08/22 06:17:55;;;;;;;32.40;8.60;;;;;;;24.58;73.91;99859.00;125163;1102;104235;-82
2022/08/22 06:20:40;;;;;;;32.33;8.43;;;;;;;24.69;73.17;99854.16;125114;1099;104252;-82
2022/08/22 06:23:31;;;;;;;37.73;8.07;;;;;;;24.79;73.20;99853.86;125488;1099;104204;-83
2022/08/22 06:26:17;;;;;;;34.50;7.40;;;;;;;24.89;73.14;99853.50;125443;1102;102308;-82
2022/08/22 06:29:29;;;;;;;34.73;7.97;;;;;;;25.00;72.28;99854.95;125257;1099;103203;-82
2022/08/22 06:32:21;;;;;;;34.43;8.17;;;;;;;25.11;72.82;99856.32;125208;1099;102653;-82
2022/08/22 06:42:22;;;;;;;38.07;8.50;;;;;;;25.43;71.98;99862.41;125590;1105;101959;-82
2022/08/22 06:45:28;;;;;;;34.00;7.60;;;;;;;25.56;71.62;99860.15;125477;1106;119153;-81
2022/08/22 06:48:23;;;;;;;31.37;6.80;;;;;;;25.67;71.82;99853.52;125324;1105;102134;-81
2022/08/22 06:51:29;;;;;;;37.43;7.77;;;;;;;25.78;70.66;99856.67;124925;1105;104194;-81
2022/08/22 06:54:24;;;;;;;37.97;7.97;;;;;;;25.89;70.55;99864.34;124874;1105;104293;-79
2022/08/22 06:57:01;;;;;;;42.97;8.70;;;;;;;26.00;69.92;99864.83;125516;1105;102864;-80
2022/08/22 07:03:32;;;;;;;;;;;;;;;;;;;;;
2022/08/22 07:06:46;;;;;;;33.80;8.27;;;;;;;26.47;68.79;99862.08;124893;1105;104256;-80
2022/08/22 07:09:37;;;;;;;37.50;8.57;;;;;;;26.65;68.55;99856.91;125026;1105;104704;-80
2022/08/22 07:12:35;;;;;;;29.73;7.37;;;;;;;26.75;68.33;99862.81;125410;1105;104226;-80
2022/08/22 07:15:43;;;;;;;36.77;8.80;;;;;;;26.81;67.73;99858.04;125111;1105;104274;-81
2022/08/22 07:18:30;;;;;;;31.40;7.23;;;;;;;27.03;67.15;99870.59;125435;1102;102271;-80
2022/08/22 07:21:26;;;;;;;38.40;6.83;;;;;;;27.21;66.29;99871.64;124973;1102;104188;-80
2022/08/22 07:24:23;;;;;;;36.37;7.27;;;;;;;27.34;65.78;99877.39;124907;1102;104281;-80
2022/08/22 07:27:42;;;;;;;32.00;6.43;;;;;;;27.50;66.00;99873.06;125382;1102;102388;-81
2022/08/22 07:30:22;;;;;;;33.10;6.80;;;;;;;27.63;65.46;99873.42;125690;1102;104471;-80
2022/08/22 07:33:40;;;;;;;34.87;7.73;;;;;;;27.81;65.00;99866.30;125457;1101;104299;-81
2022/08/22 07:36:30;;;;;;;34.10;6.90;;;;;;;28.01;64.82;99867.24;124892;1102;104290;-81
2022/08/22 07:39:39;;;;;;;32.17;6.67;;;;;;;28.10;63.88;99864.12;125035;1101;104316;-79
2022/08/22 07:42:22;;;;;;;33.70;7.13;;;;;;;28.12;63.53;99864.91;125513;1102;104223;-80
2022/08/22 07:45:09;;;;;;;31.23;6.60;;;;;;;28.08;62.97;99866.89;125136;1099;104303;-79
2022/08/22 07:48:07;;;;;;;34.77;7.33;;;;;;;28.16;62.68;99855.73;125070;1102;107623;-82
2022/08/22 07:51:07;;;;;;;;;;;;;;;;;;;;;
2022/08/22 07:53:58;;;;;;;33.43;7.53;;;;;;;28.51;62.25;99861.23;125140;1102;103741;-79
2022/08/22 07:56:51;;;;;;;33.25;7.00;;;;;;;28.68;61.84;99864.01;125220;1102;101808;-81
2022/08/22 07:59:34;;;;;;;27.60;5.80;;;;;;;28.75;60.76;99858.30;125476;1102;101987;-79
2022/08/22 08:02:17;;;;;;;31.40;7.10;;;;;;;28.65;60.29;99856.06;125091;1102;104354;-79
2022/08/22 08:05:13;;;;;;;;;;;;;;;;;;;;;
2022/08/22 08:07:54;;;;;;;37.70;7.20;;;;;;;28.90;59.77;99859.38;125140;1102;104153;-80
2022/08/22 08:10:41;;;;;;;37.83;7.30;;;;;;;29.00;59.97;99864.23;125317;1102;101940;-80
2022/08/22 08:13:32;;;;;;;36.47;7.03;;;;;;;29.13;59.22;99860.91;125867;1099;102980;-80
2022/08/22 08:16:41;;;;;;;;;;;;;;;29.26;58.74;99862.03;125879;1099;104171;-81
2022/08/22 08:19:24;;;;;;;35.98;7.10;;;;;;;29.37;58.55;99856.96;125776;1099;102612;-79
2022/08/22 08:25:29;;;;;;;33.50;7.30;;;;;;;29.60;57.68;99851.28;126640;1098;101765;-81
2022/08/22 08:32:01;;;;;;;38.13;7.07;;;;;;;29.76;56.73;99846.77;126248;1099;102200;-80
2022/08/22 08:35:30;;;;;;;35.03;6.93;;;;;;;29.78;56.47;99854.80;125867;1098;104159;-81
2022/08/22 08:42:22;;;;;;;43.23;7.00;;;;;;;29.64;55.12;99853.73;125988;1099;104285;-81
2022/08/22 08:49:05;;;;;;;36.77;7.07;;;;;;;29.56;54.50;99847.84;125216;1101;102121;-80
2022/08/22 08:52:16;;;;;;;31.70;6.30;;;;;;;29.65;54.31;99843.78;125007;1102;102119;-81
2022/08/22 08:56:01;;;;;;;35.07;6.73;;;;;;;29.75;54.33;99851.31;125426;1099;102046;-81
2022/08/22 08:59:10;;;;;;;31.57;6.30;;;;;;;29.93;53.69;99838.66;125125;1099;102555;-81
2022/08/22 09:02:20;;;;;;;33.97;5.97;;;;;;;30.06;54.04;99846.96;127514;1098;102200;-81
2022/08/22 09:05:33;;;;;;;32.50;6.07;;;;;;;30.21;53.90;99837.09;125222;1099;102532;-80
2022/08/22 09:08:52;;;;;;;35.77;7.00;;;;;;;30.26;52.88;99843.14;125677;1099;104335;-80
2022/08/22 09:12:17;;;;;;;;;;;;;;;;;;;;;
2022/08/22 09:20:04;;;;;;;38.27;6.13;;;;;;;30.40;51.88;99823.45;124899;1102;102514;-82
2022/08/22 09:23:24;;;;;;;35.03;5.90;;;;;;;30.41;52.65;99821.59;125359;1102;104101;-82
2022/08/22 09:26:54;;;;;;;29.70;6.35;;;;;;;30.47;51.27;99816.70;125086;1102;104165;-81
2022/08/22 09:37:06;;;;;;;29.83;5.67;;;;;;;30.61;50.09;99809.62;125581;1102;104326;-82
2022/08/22 09:40:13;;;;;;;37.07;6.80;;;;;;;30.70;50.17;99811.78;125802;1099;102234;-81
2022/08/22 09:43:15;;;;;;;34.17;5.97;;;;;;;30.86;50.62;99811.73;125166;1100;104175;-80
2022/08/22 09:46:29;;;;;;;;;;;;;;;;;;;;;
2022/08/22 09:49:23;;;;;;;;;;;;;;;;;;;;;
2022/08/22 09:52:22;;;;;;;30.77;6.67;;;;;;;30.62;49.65;99804.11;126134;1098;102935;-82
2022/08/22 09:55:53;;;;;;;;;;;;;;;;;;;;;
2022/08/22 09:58:43;;;;;;;34.20;6.23;;;;;;;30.43;48.68;99793.50;125250;1099;103568;-80
2022/08/22 10:01:40;;;;;;;;;;;;;;;;;;;;;
2022/08/22 10:05:00;;;;;;;32.93;5.87;;;;;;;30.76;48.57;99784.34;125126;1101;102375;-79
2022/08/22 10:08:17;;;;;;;29.37;5.67;;;;;;;31.00;48.88;99789.27;125556;1102;102281;-80
2022/08/22 10:11:30;;;;;;;33.63;6.73;;;;;;;31.13;47.87;99781.27;125050;1099;102390;-80
2022/08/22 10:14:26;;;;;;;30.50;5.83;;;;;;;31.18;47.93;99779.13;124992;1102;104214;-80
2022/08/22 10:17:17;;;;;;;34.60;6.47;;;;;;;31.20;47.07;99782.64;125062;1102;104298;-81
2022/08/22 10:19:58;;;;;;;34.60;7.00;;;;;;;31.24;46.60;99773.33;125920;1098;104173;-80
2022/08/22 10:22:46;;;;;;;40.95;7.42;;;;;;;31.30;46.63;99769.38;126154;1098;102088;-81
2022/08/22 10:25:43;;;;;;;33.83;6.17;;;;;;;31.22;45.93;99772.56;125102;1098;104166;-80
2022/08/22 10:28:31;;;;;;;36.17;6.47;;;;;;;31.31;46.46;99779.27;125062;1100;102192;-80
2022/08/22 10:31:24;;;;;;;28.33;6.67;;;;;;;31.31;45.58;99774.70;125096;1099;102755;-80
2022/08/22 10:34:09;;;;;;;29.30;5.30;;;;;;;31.51;45.90;99767.18;125163;1099;104295;-80
2022/08/22 10:36:57;;;;;;;33.23;6.00;;;;;;;31.68;45.50;99775.14;125054;1102;104370;-79
2022/08/22 10:39:42;;;;;;;35.93;7.03;;;;;;;31.70;45.10;99775.91;125067;1099;104205;-79
2022/08/22 10:42:29;;;;;;;33.37;6.50;;;;;;;31.68;45.28;99771.53;125018;1102;104238;-79
2022/08/22 10:45:16;;;;;;;28.57;5.67;;;;;;;31.85;45.30;99774.06;125066;1099;104181;-79
2022/08/22 10:48:26;;;;;;;33.83;6.70;;;;;;;31.97;44.84;99772.37;125095;1099;102956;-79
2022/08/22 10:51:10;;;;;;;28.80;5.73;;;;;;;32.07;44.20;99767.23;125086;1099;104216;-80
2022/08/22 10:54:22;;;;;;;;;;;;;;;;;;;;;
2022/08/22 10:57:14;;;;;;;24.60;5.93;;;;;;;31.84;44.19;99766.88;125107;1099;104246;-79
2022/08/22 11:00:15;;;;;;;29.23;5.23;;;;;;;31.72;44.48;99759.53;125056;1102;104156;-80
2022/08/22 11:03:16;;;;;;;25.57;6.20;;;;;;;31.66;44.35;99770.77;125089;1099;102192;-79
2022/08/22 11:05:53;;;;;;;28.37;5.77;;;;;;;31.80;44.33;99759.90;125004;1099;104239;-79
2022/08/22 11:09:05;;;;;;;27.25;5.65;;;;;;;31.90;43.74;99761.06;125088;1101;102228;-81
2022/08/22 11:12:03;;;;;;;;;;;;;;;31.96;43.53;99758.91;125130;1102;104558;-80
2022/08/22 11:15:17;;;;;;;;;;;;;;;;;;;;;
2022/08/22 11:18:26;;;;;;;31.97;5.70;;;;;;;31.86;43.10;99766.78;125134;1099;104261;-79
2022/08/22 11:21:26;;;;;;;26.23;5.47;;;;;;;31.97;43.13;99760.66;125049;1099;104069;-79
2022/08/22 11:24:23;;;;;;;29.40;6.30;;;;;;;32.08;43.31;99763.53;125074;1102;104204;-79
2022/08/22 11:27:26;;;;;;;29.80;5.37;;;;;;;32.24;43.25;99763.41;126205;1098;102238;-79
2022/08/22 11:30:07;;;;;;;32.13;4.90;;;;;;;32.33;43.05;99760.09;125034;1102;101889;-77
2022/08/22 11:33:20;;;;;;;20.87;5.40;;;;;;;32.40;42.61;99763.28;124938;1099;118572;-76
2022/08/22 11:36:03;;;;;;;30.83;6.20;;;;;;;32.42;42.21;99758.61;124928;1102;104335;-77
2022/08/22 11:38:48;;;;;;;25.90;5.27;;;;;;;32.56;42.26;99747.68;124924;1103;103252;-78
2022/08/22 11:41:29;;;;;;;22.83;5.33;;;;;;;32.70;42.36;99748.63;124965;1102;102380;-78
2022/08/22 11:44:21;;;;;;;26.17;5.20;;;;;;;32.61;41.36;99753.69;124981;1102;104354;-77
2022/08/22 11:47:08;;;;;;;20.73;5.03;;;;;;;32.74;41.98;99742.88;124945;1102;104224;-77
2022/08/22 11:50:11;;;;;;;29.77;6.07;;;;;;;32.85;41.39;99755.73;125423;1102;104162;-78
2022/08/22 11:53:10;;;;;;;18.67;4.30;;;;;;;32.93;41.25;99750.63;124911;1102;104414;-78
2022/08/22 11:55:53;;;;;;;24.27;5.70;;;;;;;32.78;41.09;99748.97;125844;1102;101768;-78
2022/08/22 11:59:00;;;;;;;24.10;5.80;;;;;;;32.66;40.48;99749.80;125019;1102;102187;-79
2022/08/22 12:01:51;;;;;;;24.40;5.97;;;;;;;32.63;40.19;99750.88;124884;1102;104639;-78
2022/08/22 12:04:38;;;;;;;27.93;5.07;;;;;;;32.70;40.35;99748.63;125460;1102;102845;-78
2022/08/22 12:07:51;;;;;;;25.90;5.10;;;;;;;32.77;40.24;99742.67;124990;1099;104179;-78
2022/08/22 12:10:48;;;;;;;;;;;;;;;32.73;38.69;99732.13;124853;1099;104166;-77
2022/08/22 12:13:41;;;;;;;23.30;4.70;;;;;;;32.80;39.99;99738.85;124942;1099;104188;-77
2022/08/22 12:16:21;;;;;;;26.73;5.00;;;;;;;32.78;39.96;99738.09;124942;1099;104188;-77
2022/08/22 12:19:02;;;;;;;25.80;5.50;;;;;;;32.60;39.91;99735.64;124944;1102;104159;-77
2022/08/22 12:22:16;;;;;;;26.87;5.90;;;;;;;32.43;39.54;99736.79;124972;1100;104166;-77
2022/08/22 12:25:11;;;;;;;18.43;4.53;;;;;;;32.30;39.80;99732.30;124937;1099;101978;-77
2022/08/22 12:28:09;;;;;;;23.43;4.97;;;;;;;32.37;40.09;99736.34;124909;1102;101778;-78
2022/08/22 12:31:07;;;;;;;26.13;5.10;;;;;;;32.46;40.10;99730.30;124938;1100;104389;-78
2022/08/22 12:33:57;;;;;;;23.83;5.00;;;;;;;32.37;39.76;99731.78;124883;1099;104204;-78
2022/08/22 12:37:08;;;;;;;21.83;5.10;;;;;;;32.28;39.94;99732.39;124269;1098;104251;-77
2022/08/22 12:40:13;;;;;;;19.57;4.90;;;;;;;32.25;40.00;99719.89;125722;1098;102577;-78
2022/08/22 12:43:09;;;;;;;22.70;5.10;;;;;;;32.31;39.80;99709.61;125039;1099;104165;-78
2022/08/22 12:46:08;;;;;;;22.07;4.60;;;;;;;32.36;39.47;99704.73;125001;1099;104192;-80
2022/08/22 12:49:18;;;;;;;20.20;5.23;;;;;;;32.38;39.78;99706.38;125470;1099;104347;-79
2022/08/22 12:52:37;;;;;;;22.43;5.27;;;;;;;32.34;39.98;99710.27;125085;1099;104124;-78
2022/08/22 12:55:39;;;;;;;18.17;4.80;;;;;;;32.25;39.50;99714.46;125603;1099;107426;-79
2022/08/22 12:58:37;;;;;;;;;;;;;;;;;;;;;
2022/08/22 13:01:25;;;;;;;19.97;4.70;;;;;;;32.13;39.85;99717.99;125047;1099;102377;-80
2022/08/22 13:04:18;;;;;;;22.17;4.50;;;;;;;32.16;39.73;99715.08;125655;1099;102759;-79
2022/08/22 13:07:22;;;;;;;23.90;5.33;;;;;;;32.18;39.39;99715.86;125127;1101;102346;-79
2022/08/22 13:10:23;;;;;;;27.10;5.10;;;;;;;32.17;39.36;99719.54;124986;1100;104178;-80
2022/08/22 13:13:01;;;;;;;21.47;5.20;;;;;;;32.17;39.13;99714.11;125097;1099;104270;-79
2022/08/22 13:15:40;;;;;;;14.60;4.40;;;;;;;32.19;39.26;99716.72;125027;1099;120087;-78
2022/08/22 13:18:25;;;;;;;18.40;4.70;;;;;;;32.21;39.66;99710.23;126158;1098;104631;-79
2022/08/22 13:21:28;;;;;;;;;;;;;;;;;;;;;
2022/08/22 13:24:27;;;;;;;20.10;4.80;;;;;;;32.47;39.07;99717.58;125027;1099;104156;-77
2022/08/22 13:27:34;;;;;;;19.80;4.63;;;;;;;32.49;39.13;99713.80;124993;1099;102746;-78
2022/08/22 13:30:22;;;;;;;20.03;4.80;;;;;;;32.49;39.12;99711.08;125002;1099;104271;-78
2022/08/22 13:33:45;;;;;;;19.45;4.45;;;;;;;32.52;38.99;99721.73;125015;1099;104197;-81
2022/08/22 13:36:30;;;;;;;26.80;5.10;;;;;;;32.38;39.08;99722.67;124994;1099;104262;-80
2022/08/22 13:39:28;;;;;;;17.05;4.60;;;;;;;32.29;39.04;99720.58;126131;1098;104169;-80
2022/08/22 13:42:19;;;;;;;17.27;4.50;;;;;;;32.31;39.09;99721.33;125074;1098;104162;-79
2022/08/22 13:48:29;;;;;;;21.97;4.83;;;;;;;32.31;38.88;99721.33;125011;1099;108165;-81
2022/08/22 13:51:20;;;;;;;25.20;4.90;;;;;;;32.33;39.25;99716.66;126113;1099;104158;-80
2022/08/22 13:54:19;;;;;;;20.03;4.70;;;;;;;32.30;38.87;99716.00;125087;1099;104188;-79
2022/08/22 13:57:01;;;;;;;;;;;;;;;32.28;39.02;99717.97;125278;1099;103204;-80